createdAt,value
2022-10-01T00:00:56.596Z,10.40
2022-10-01T00:05:10.978Z,10.48
2022-10-01T00:09:13.073Z,10.57
2022-10-01T00:13:15.172Z,10.59
2022-10-01T00:17:17.413Z,10.61
2022-10-01T00:21:26.585Z,10.64
2022-10-01T00:25:28.663Z,10.70
2022-10-01T00:29:31.486Z,10.75
2022-10-01T00:33:34.163Z,10.78
2022-10-01T00:37:37.367Z,10.78
2022-10-01T00:41:40.305Z,10.80
2022-10-01T00:45:42.419Z,10.82
2022-10-01T00:49:46.878Z,10.85
2022-10-01T00:53:48.953Z,10.87
2022-10-01T00:57:51.998Z,10.85
2022-10-01T01:01:54.433Z,10.82
2022-10-01T01:05:56.945Z,10.80
2022-10-01T01:10:00.453Z,10.82
2022-10-01T01:14:22.571Z,10.77
2022-10-01T01:18:40.807Z,10.71
2022-10-01T01:22:54.342Z,10.71
2022-10-01T01:27:05.929Z,10.76
2022-10-01T01:31:14.045Z,10.78
2022-10-01T01:35:40.563Z,10.78
2022-10-01T01:39:49.854Z,10.75
2022-10-01T01:43:56.086Z,10.71
2022-10-01T01:48:01.809Z,10.73
2022-10-01T01:52:13.042Z,10.73
2022-10-01T01:56:16.861Z,10.61
2022-10-01T02:00:19.062Z,10.50
2022-10-01T02:04:39.536Z,10.40
2022-10-01T02:08:51.754Z,10.35
2022-10-01T02:13:03.545Z,10.35
2022-10-01T02:17:37.003Z,10.44
2022-10-01T02:22:01.014Z,10.53
2022-10-01T02:26:16.220Z,10.56
2022-10-01T02:30:18.763Z,10.60
2022-10-01T02:34:27.929Z,10.51
2022-10-01T02:38:31.537Z,10.34
2022-10-01T02:42:36.600Z,10.28
2022-10-01T02:47:07.268Z,10.17
2022-10-01T02:51:28.531Z,10.18
2022-10-01T02:55:41.774Z,10.25
2022-10-01T02:59:44.326Z,10.29
2022-10-01T03:03:46.619Z,10.29
2022-10-01T03:07:48.802Z,10.34
2022-10-01T03:11:50.881Z,10.33
2022-10-01T03:15:52.984Z,10.26
2022-10-01T03:19:55.332Z,10.21
2022-10-01T03:23:57.511Z,10.11
2022-10-01T03:27:59.646Z,10.07
2022-10-01T03:32:01.908Z,10.02
2022-10-01T03:36:05.034Z,10.05
2022-10-01T03:40:07.917Z,10.09
2022-10-01T03:44:10.157Z,10.01
2022-10-01T03:48:12.236Z,9.97
2022-10-01T03:52:14.243Z,9.97
2022-10-01T03:56:18.035Z,9.93
2022-10-01T04:00:20.506Z,9.99
2022-10-01T04:04:22.619Z,10.10
2022-10-01T04:08:25.007Z,10.21
2022-10-01T04:12:27.596Z,10.26
2022-10-01T04:16:29.711Z,10.24
2022-10-01T04:20:33.555Z,10.24
2022-10-01T04:24:35.596Z,10.25
2022-10-01T04:28:37.717Z,10.32
2022-10-01T04:32:39.778Z,10.38
2022-10-01T04:36:42.379Z,10.33
2022-10-01T04:40:44.503Z,10.25
2022-10-01T04:44:47.085Z,10.22
2022-10-01T04:48:49.218Z,10.16
2022-10-01T04:52:52.270Z,10.14
2022-10-01T04:56:54.303Z,10.11
2022-10-01T05:01:01.052Z,10.09
2022-10-01T05:05:06.483Z,10.00
2022-10-01T05:09:08.534Z,9.87
2022-10-01T05:13:11.608Z,9.77
2022-10-01T05:17:18.058Z,9.82
2022-10-01T05:21:20.480Z,9.80
2022-10-01T05:25:23.117Z,9.75
2022-10-01T05:29:25.258Z,9.73
2022-10-01T05:33:29.213Z,9.69
2022-10-01T05:37:31.610Z,9.66
2022-10-01T05:41:34.051Z,9.70
2022-10-01T05:45:36.415Z,9.84
2022-10-01T05:49:42.824Z,9.93
2022-10-01T05:53:50.532Z,10.01
2022-10-01T05:57:54.799Z,10.00
2022-10-01T06:01:56.939Z,9.99
2022-10-01T06:05:59.543Z,10.04
2022-10-01T06:10:01.591Z,10.08
2022-10-01T06:14:03.694Z,10.12
2022-10-01T06:18:09.949Z,10.17
2022-10-01T06:22:11.967Z,10.23
2022-10-01T06:26:14.015Z,10.34
2022-10-01T06:30:16.048Z,10.46
2022-10-01T06:34:18.088Z,10.59
2022-10-01T06:38:21.891Z,10.63
2022-10-01T06:42:24.435Z,10.65
2022-10-01T06:46:28.450Z,10.69
2022-10-01T06:50:31.838Z,10.75
2022-10-01T06:54:33.813Z,10.79
2022-10-01T06:58:36.933Z,10.79
2022-10-01T07:02:39.521Z,10.84
2022-10-01T07:06:41.903Z,10.86
2022-10-01T07:10:45.604Z,10.84
2022-10-01T07:14:47.662Z,10.84
2022-10-01T07:18:49.672Z,10.89
2022-10-01T07:22:58.135Z,10.93
2022-10-01T07:27:03.785Z,10.93
2022-10-01T07:31:10.970Z,10.96
2022-10-01T07:35:14.527Z,10.96
2022-10-01T07:39:16.773Z,10.98
2022-10-01T07:43:18.834Z,11.03
2022-10-01T07:47:21.852Z,11.04
2022-10-01T07:51:26.317Z,11.03
2022-10-01T07:55:30.268Z,11.05
2022-10-01T07:59:32.882Z,11.06
2022-10-01T08:03:35.395Z,11.08
2022-10-01T08:07:37.415Z,11.11
2022-10-01T08:11:39.393Z,11.12
2022-10-01T08:15:49.999Z,11.15
2022-10-01T08:19:52.141Z,11.19
2022-10-01T08:23:54.233Z,11.24
2022-10-01T08:27:56.561Z,11.29
2022-10-01T08:31:58.590Z,11.34
2022-10-01T08:36:02.511Z,11.34
2022-10-01T08:40:05.590Z,11.34
2022-10-01T08:44:17.792Z,11.39
2022-10-01T08:48:41.934Z,11.46
2022-10-01T08:52:53.584Z,11.56
2022-10-01T08:57:00.663Z,11.63
2022-10-01T09:01:04.711Z,11.67
2022-10-01T09:05:18.287Z,11.72
2022-10-01T09:09:40.538Z,11.78
2022-10-01T09:14:24.736Z,11.83
2022-10-01T10:41:48.804Z,12.80
2022-10-01T10:46:04.173Z,12.83
2022-10-01T10:50:41.123Z,12.91
2022-10-01T10:54:51.307Z,13.01
2022-10-01T10:59:10.225Z,13.07
2022-10-01T11:03:54.529Z,13.13
2022-10-01T11:08:19.997Z,13.23
2022-10-01T11:12:48.352Z,13.31
2022-10-01T11:17:12.722Z,13.40
2022-10-01T11:21:27.017Z,13.42
2022-10-01T11:26:07.613Z,13.50
2022-10-01T11:30:44.789Z,13.58
2022-10-01T11:35:36.817Z,13.60
2022-10-01T11:39:43.827Z,13.65
2022-10-01T11:44:28.446Z,13.65
2022-10-01T11:48:57.127Z,13.59
2022-10-01T11:53:37.687Z,13.56
2022-10-01T11:57:59.730Z,13.60
2022-10-01T12:02:11.194Z,13.61
2022-10-01T12:06:37.637Z,13.60
2022-10-01T12:10:46.949Z,13.58
2022-10-01T12:14:56.682Z,13.62
2022-10-01T12:19:17.144Z,13.65
2022-10-01T12:23:30.586Z,13.67
2022-10-01T12:27:55.971Z,13.69
2022-10-01T12:32:37.364Z,13.76
2022-10-01T12:37:11.998Z,13.85
2022-10-01T12:41:24.138Z,13.85
2022-10-01T12:45:48.474Z,13.88
2022-10-01T12:50:36.860Z,13.93
2022-10-01T12:54:59.978Z,13.94
2022-10-01T12:59:11.802Z,13.92
2022-10-01T13:03:43.163Z,13.94
2022-10-01T13:08:03.997Z,14.01
2022-10-01T13:12:45.378Z,14.10
2022-10-01T13:17:18.935Z,14.16
2022-10-01T13:21:45.889Z,14.19
2022-10-01T13:26:10.765Z,14.24
2022-10-01T13:30:53.078Z,14.25
2022-10-01T13:34:57.115Z,14.23
2022-10-01T13:38:59.609Z,14.21
2022-10-01T13:43:23.402Z,14.20
2022-10-01T13:47:30.560Z,14.21
2022-10-01T13:51:38.029Z,14.26
2022-10-01T13:55:46.344Z,14.28
2022-10-01T13:59:59.822Z,14.29
2022-10-01T14:04:40.104Z,14.32
2022-10-01T14:09:10.848Z,14.31
2022-10-01T14:13:33.392Z,14.33
2022-10-01T14:17:41.502Z,14.25
2022-10-01T14:22:07.655Z,14.22
2022-10-01T14:26:37.553Z,14.17
2022-10-01T14:30:42.094Z,14.13
2022-10-01T14:35:01.052Z,14.05
2022-10-01T14:39:21.576Z,14.03
2022-10-01T14:43:28.147Z,14.00
2022-10-01T14:47:39.360Z,13.97
2022-10-01T14:51:57.822Z,14.00
2022-10-01T14:56:05.347Z,14.00
2022-10-01T15:00:19.633Z,13.99
2022-10-01T15:04:22.089Z,13.94
2022-10-01T15:08:40.989Z,13.89
2022-10-01T15:12:55.519Z,13.92
2022-10-01T15:17:19.219Z,13.90
2022-10-01T15:21:48.324Z,13.85
2022-10-01T15:25:56.057Z,13.81
2022-10-01T15:30:00.115Z,13.76
2022-10-01T15:34:14.899Z,13.77
2022-10-01T15:38:17.791Z,13.78
2022-10-01T15:42:26.202Z,13.75
2022-10-01T15:46:30.766Z,13.69
2022-10-01T15:50:36.986Z,13.64
2022-10-01T15:54:41.406Z,13.61
2022-10-01T15:58:55.099Z,13.60
2022-10-01T16:02:58.398Z,13.53
2022-10-01T16:07:00.760Z,13.47
2022-10-01T16:11:16.514Z,13.45
2022-10-01T16:15:30.944Z,13.41
2022-10-01T16:19:33.906Z,13.36
2022-10-01T16:23:41.922Z,13.34
2022-10-01T16:27:50.110Z,13.32
2022-10-01T16:31:53.199Z,13.30
2022-10-01T16:36:10.019Z,13.29
2022-10-01T16:40:16.257Z,13.30
2022-10-01T16:44:19.524Z,13.26
2022-10-01T16:48:24.838Z,13.26
2022-10-01T16:52:26.890Z,13.23
2022-10-01T16:56:29.255Z,13.18
2022-10-01T17:00:31.929Z,13.13
2022-10-01T17:04:36.211Z,13.07
2022-10-01T17:08:38.206Z,13.01
2022-10-01T17:12:41.668Z,12.99
2022-10-01T17:16:46.906Z,12.87
2022-10-01T17:20:54.185Z,12.80
2022-10-01T17:24:56.232Z,12.86
2022-10-01T17:28:58.183Z,12.91
2022-10-01T17:33:01.509Z,12.97
2022-10-01T17:37:03.543Z,12.98
2022-10-01T17:41:08.633Z,12.92
2022-10-01T17:45:16.540Z,12.78
2022-10-01T17:49:18.928Z,12.67
2022-10-01T17:53:21.271Z,12.61
2022-10-01T17:57:27.066Z,12.60
2022-10-01T18:01:29.804Z,12.59
2022-10-01T18:05:32.370Z,12.57
2022-10-01T18:09:37.084Z,12.55
2022-10-01T18:13:39.721Z,12.54
2022-10-01T18:17:47.952Z,12.51
2022-10-01T18:21:53.307Z,12.47
2022-10-01T18:25:57.787Z,12.49
2022-10-01T18:30:00.486Z,12.45
2022-10-01T18:34:09.716Z,12.39
2022-10-01T18:38:25.569Z,12.46
2022-10-01T18:42:33.363Z,12.54
2022-10-01T18:46:48.316Z,12.54
2022-10-01T18:50:50.319Z,12.61
2022-10-01T18:54:58.681Z,12.73
2022-10-01T18:59:35.909Z,12.80
2022-10-01T19:04:02.804Z,12.75
2022-10-01T19:08:50.017Z,12.72
2022-10-01T19:13:16.230Z,12.70
2022-10-01T19:17:27.366Z,12.65
2022-10-01T19:22:09.931Z,12.62
2022-10-01T19:26:40.995Z,12.60
2022-10-01T19:31:21.052Z,12.57
2022-10-01T19:35:46.082Z,12.58
2022-10-01T19:40:01.981Z,12.55
2022-10-01T19:44:31.583Z,12.51
2022-10-01T19:49:07.478Z,12.52
2022-10-01T19:54:14.918Z,12.55
2022-10-01T19:58:21.148Z,12.58
2022-10-01T20:02:55.518Z,12.60
2022-10-01T20:07:10.142Z,12.60
2022-10-01T20:11:27.056Z,12.54
2022-10-01T20:15:49.440Z,12.51
2022-10-01T20:26:18.260Z,12.39
2022-10-01T20:36:18.142Z,12.48
2022-10-01T20:46:20.216Z,12.28
2022-10-01T20:56:31.633Z,12.30
2022-10-01T21:00:58.417Z,12.31
2022-10-01T21:05:24.235Z,12.25
2022-10-01T21:09:50.547Z,12.23
2022-10-01T21:14:19.625Z,12.22
2022-10-01T21:18:48.058Z,12.23
2022-10-01T21:23:38.463Z,12.25
2022-10-01T21:27:46.895Z,12.20
2022-10-01T21:32:39.374Z,12.14
2022-10-01T21:36:58.059Z,12.08
2022-10-01T21:48:30.580Z,12.02
2022-10-01T21:53:16.119Z,11.96
2022-10-01T22:03:46.153Z,11.94
2022-10-01T22:09:11.389Z,11.98
2022-10-01T22:23:50.778Z,11.73
2022-10-01T22:28:38.475Z,11.71
2022-10-01T22:32:56.079Z,11.66
2022-10-01T22:37:43.296Z,11.63
2022-10-01T22:42:15.242Z,11.59
2022-10-01T22:47:19.546Z,11.51
2022-10-01T22:51:56.814Z,11.37
2022-10-01T22:56:03.021Z,11.32
2022-10-01T23:00:22.398Z,11.32
2022-10-01T23:04:49.227Z,11.32
2022-10-01T23:09:04.547Z,11.29
2022-10-01T23:13:57.336Z,11.32
2022-10-01T23:18:41.682Z,11.31
2022-10-01T23:22:56.575Z,11.31
2022-10-01T23:28:36.017Z,11.33
2022-10-01T23:33:25.777Z,11.26
2022-10-01T23:37:43.449Z,11.18
2022-10-01T23:42:32.811Z,11.07
2022-10-01T23:46:52.978Z,10.98
2022-10-01T23:51:46.118Z,10.98
2022-10-01T23:56:50.323Z,10.92
